sensor_id;sensor_type;location;lat;lon;timestamp;pressure;altitude;pressure_sealevel;temperature;humidity
45323;BME280;31382;50.200;8.674;2023-05-15T00:03:36;99953.13;;;14.55;60.59
45323;BME280;31382;50.200;8.674;2023-05-15T00:08:38;99955.22;;;14.53;60.76
45323;BME280;31382;50.200;8.674;2023-05-15T00:13:40;99962.09;;;14.42;61.00
45323;BME280;31382;50.200;8.674;2023-05-15T00:18:41;99953.75;;;14.43;60.90
45323;BME280;31382;50.200;8.674;2023-05-15T00:23:43;99948.59;;;14.42;60.99
45323;BME280;31382;50.200;8.674;2023-05-15T00:28:44;99958.56;;;14.41;61.38
45323;BME280;31382;50.200;8.674;2023-05-15T00:33:46;99958.81;;;14.26;61.57
45323;BME280;31382;50.200;8.674;2023-05-15T00:38:47;99943.00;;;14.17;62.06
45323;BME280;31382;50.200;8.674;2023-05-15T00:43:49;99940.53;;;14.08;61.98
45323;BME280;31382;50.200;8.674;2023-05-15T00:48:52;99942.59;;;14.00;62.49
45323;BME280;31382;50.200;8.674;2023-05-15T00:53:55;99940.75;;;14.00;62.43
45323;BME280;31382;50.200;8.674;2023-05-15T00:58:58;99940.50;;;14.02;62.39
45323;BME280;31382;50.200;8.674;2023-05-15T01:04:01;99931.56;;;14.01;62.62
45323;BME280;31382;50.200;8.674;2023-05-15T01:09:02;99930.94;;;13.99;62.83
45323;BME280;31382;50.200;8.674;2023-05-15T01:14:06;99933.03;;;13.97;62.99
45323;BME280;31382;50.200;8.674;2023-05-15T01:19:08;99939.91;;;13.93;63.08
45323;BME280;31382;50.200;8.674;2023-05-15T01:29:42;99933.47;;;13.81;63.21
45323;BME280;31382;50.200;8.674;2023-05-15T01:34:52;99928.88;;;13.81;63.35
45323;BME280;31382;50.200;8.674;2023-05-15T01:39:59;99926.78;;;13.70;63.44
45323;BME280;31382;50.200;8.674;2023-05-15T01:45:03;99929.91;;;13.67;63.63
45323;BME280;31382;50.200;8.674;2023-05-15T01:50:08;99929.91;;;13.67;63.58
45323;BME280;31382;50.200;8.674;2023-05-15T01:55:12;99942.16;;;13.56;63.97
45323;BME280;31382;50.200;8.674;2023-05-15T02:00:15;99939.88;;;13.53;63.80
45323;BME280;31382;50.200;8.674;2023-05-15T02:05:17;99930.28;;;13.51;63.86
45323;BME280;31382;50.200;8.674;2023-05-15T02:10:20;99923.03;;;13.44;64.15
45323;BME280;31382;50.200;8.674;2023-05-15T02:15:23;99918.06;;;13.41;64.50
45323;BME280;31382;50.200;8.674;2023-05-15T02:20:25;99916.81;;;13.37;64.15
45323;BME280;31382;50.200;8.674;2023-05-15T02:30:55;99919.69;;;13.36;64.19
45323;BME280;31382;50.200;8.674;2023-05-15T02:36:01;99921.34;;;13.30;63.94
45323;BME280;31382;50.200;8.674;2023-05-15T02:41:05;99921.09;;;13.25;63.88
45323;BME280;31382;50.200;8.674;2023-05-15T02:46:08;99921.28;;;13.17;64.33
45323;BME280;31382;50.200;8.674;2023-05-15T02:51:09;99918.56;;;13.10;63.96
45323;BME280;31382;50.200;8.674;2023-05-15T02:56:11;99918.56;;;13.03;64.01
45323;BME280;31382;50.200;8.674;2023-05-15T03:01:12;99921.84;;;12.99;64.36
45323;BME280;31382;50.200;8.674;2023-05-15T03:06:14;99924.91;;;12.89;64.32
45323;BME280;31382;50.200;8.674;2023-05-15T03:11:15;99922.22;;;12.82;65.14
45323;BME280;31382;50.200;8.674;2023-05-15T03:16:19;99920.53;;;12.81;64.72
45323;BME280;31382;50.200;8.674;2023-05-15T03:21:21;99924.47;;;12.79;65.12
45323;BME280;31382;50.200;8.674;2023-05-15T03:26:22;99915.34;;;12.80;64.94
45323;BME280;31382;50.200;8.674;2023-05-15T03:31:23;99925.09;;;12.74;64.82
45323;BME280;31382;50.200;8.674;2023-05-15T03:36:25;99915.72;;;12.70;64.76
45323;BME280;31382;50.200;8.674;2023-05-15T03:41:26;99910.06;;;12.58;64.83
45323;BME280;31382;50.200;8.674;2023-05-15T03:46:28;99916.47;;;12.57;65.12
45323;BME280;31382;50.200;8.674;2023-05-15T03:51:29;99928.09;;;12.58;64.83
45323;BME280;31382;50.200;8.674;2023-05-15T03:56:31;99915.22;;;12.53;64.77
45323;BME280;31382;50.200;8.674;2023-05-15T04:01:33;99922.47;;;12.53;65.11
45323;BME280;31382;50.200;8.674;2023-05-15T04:06:48;99923.50;;;12.52;64.83
45323;BME280;31382;50.200;8.674;2023-05-15T04:11:50;99919.38;;;12.56;65.20
45323;BME280;31382;50.200;8.674;2023-05-15T04:16:51;99923.13;;;12.61;65.49
45323;BME280;31382;50.200;8.674;2023-05-15T04:21:52;99921.94;;;12.64;65.42
45323;BME280;31382;50.200;8.674;2023-05-15T04:26:54;99920.50;;;12.68;65.25
45323;BME280;31382;50.200;8.674;2023-05-15T04:31:55;99928.78;;;12.73;65.13
45323;BME280;31382;50.200;8.674;2023-05-15T04:36:57;99924.66;;;12.77;65.59
45323;BME280;31382;50.200;8.674;2023-05-15T04:41:58;99927.00;;;12.87;65.26
45323;BME280;31382;50.200;8.674;2023-05-15T04:47:00;99921.66;;;13.00;65.50
45323;BME280;31382;50.200;8.674;2023-05-15T04:52:01;99917.94;;;13.15;65.82
45323;BME280;31382;50.200;8.674;2023-05-15T04:57:03;99927.56;;;13.31;65.51
45323;BME280;31382;50.200;8.674;2023-05-15T05:02:04;99925.94;;;13.43;65.29
45323;BME280;31382;50.200;8.674;2023-05-15T05:07:06;99927.19;;;13.54;65.54
45323;BME280;31382;50.200;8.674;2023-05-15T05:12:08;99924.72;;;13.65;65.61
45323;BME280;31382;50.200;8.674;2023-05-15T05:17:09;99923.69;;;13.80;65.84
45323;BME280;31382;50.200;8.674;2023-05-15T05:22:11;99924.53;;;13.87;66.04
45323;BME280;31382;50.200;8.674;2023-05-15T05:27:12;99934.69;;;14.05;65.94
45323;BME280;31382;50.200;8.674;2023-05-15T05:32:14;99931.78;;;14.20;65.99
45323;BME280;31382;50.200;8.674;2023-05-15T05:37:15;99940.28;;;14.37;65.81
45323;BME280;31382;50.200;8.674;2023-05-15T05:42:17;99937.34;;;14.52;65.63
45323;BME280;31382;50.200;8.674;2023-05-15T05:47:18;99941.47;;;14.67;65.56
45323;BME280;31382;50.200;8.674;2023-05-15T05:52:19;99939.97;;;14.85;65.35
45323;BME280;31382;50.200;8.674;2023-05-15T05:57:21;99938.41;;;15.02;65.07
45323;BME280;31382;50.200;8.674;2023-05-15T06:02:23;99936.25;;;15.18;64.83
45323;BME280;31382;50.200;8.674;2023-05-15T06:07:24;99934.09;;;15.33;64.39
45323;BME280;31382;50.200;8.674;2023-05-15T06:12:26;99933.22;;;15.39;64.44
45323;BME280;31382;50.200;8.674;2023-05-15T06:17:28;99937.78;;;15.45;64.42
45323;BME280;31382;50.200;8.674;2023-05-15T06:22:29;99945.00;;;15.58;64.03
45323;BME280;31382;50.200;8.674;2023-05-15T06:27:33;99927.88;;;15.58;63.92
45323;BME280;31382;50.200;8.674;2023-05-15T06:32:34;99931.31;;;15.78;63.70
45323;BME280;31382;50.200;8.674;2023-05-15T06:37:36;99927.34;;;16.06;63.34
45323;BME280;31382;50.200;8.674;2023-05-15T06:42:37;99932.56;;;16.26;62.80
45323;BME280;31382;50.200;8.674;2023-05-15T06:47:39;99925.91;;;16.47;62.31
45323;BME280;31382;50.200;8.674;2023-05-15T06:52:40;99920.63;;;16.71;61.85
45323;BME280;31382;50.200;8.674;2023-05-15T06:57:42;99918.41;;;16.79;61.32
45323;BME280;31382;50.200;8.674;2023-05-15T07:02:44;99913.91;;;16.73;60.96
45323;BME280;31382;50.200;8.674;2023-05-15T07:07:46;99918.34;;;16.68;61.07
45323;BME280;31382;50.200;8.674;2023-05-15T07:12:47;99918.41;;;16.98;60.09
45323;BME280;31382;50.200;8.674;2023-05-15T07:17:48;99921.78;;;17.12;59.96
45323;BME280;31382;50.200;8.674;2023-05-15T07:22:50;99904.56;;;17.18;60.08
45323;BME280;31382;50.200;8.674;2023-05-15T07:27:57;99905.34;;;17.37;60.07
45323;BME280;31382;50.200;8.674;2023-05-15T07:32:58;99904.09;;;17.51;59.39
45323;BME280;31382;50.200;8.674;2023-05-15T07:37:59;99905.66;;;17.71;58.96
45323;BME280;31382;50.200;8.674;2023-05-15T07:43:01;99910.28;;;17.82;58.85
45323;BME280;31382;50.200;8.674;2023-05-15T07:48:16;99900.41;;;18.11;58.63
45323;BME280;31382;50.200;8.674;2023-05-15T07:53:18;99896.94;;;18.51;57.82
45323;BME280;31382;50.200;8.674;2023-05-15T07:58:20;99889.88;;;18.79;57.12
45323;BME280;31382;50.200;8.674;2023-05-15T08:03:21;99890.91;;;19.01;56.75
45323;BME280;31382;50.200;8.674;2023-05-15T08:08:23;99874.13;;;19.21;56.34
45323;BME280;31382;50.200;8.674;2023-05-15T08:13:24;99881.25;;;19.39;55.88
45323;BME280;31382;50.200;8.674;2023-05-15T08:18:26;99876.97;;;19.60;55.52
45323;BME280;31382;50.200;8.674;2023-05-15T08:23:27;99879.31;;;19.86;54.57
45323;BME280;31382;50.200;8.674;2023-05-15T08:28:29;99880.63;;;20.00;53.98
45323;BME280;31382;50.200;8.674;2023-05-15T08:33:30;99880.94;;;20.20;53.00
45323;BME280;31382;50.200;8.674;2023-05-15T08:38:32;99875.38;;;20.32;51.03
45323;BME280;31382;50.200;8.674;2023-05-15T08:43:35;99869.91;;;20.32;50.16
45323;BME280;31382;50.200;8.674;2023-05-15T08:48:40;99862.13;;;20.63;48.74
45323;BME280;31382;50.200;8.674;2023-05-15T08:53:42;99862.50;;;20.72;47.40
45323;BME280;31382;50.200;8.674;2023-05-15T08:58:44;99874.91;;;20.79;46.14
45323;BME280;31382;50.200;8.674;2023-05-15T09:03:45;99868.63;;;21.06;45.56
45323;BME280;31382;50.200;8.674;2023-05-15T09:08:48;99865.31;;;21.04;44.63
45323;BME280;31382;50.200;8.674;2023-05-15T09:13:50;99858.31;;;21.13;44.22
45323;BME280;31382;50.200;8.674;2023-05-15T09:18:52;99852.09;;;21.45;44.50
45323;BME280;31382;50.200;8.674;2023-05-15T09:24:14;99851.28;;;21.50;44.21
45323;BME280;31382;50.200;8.674;2023-05-15T09:29:16;99847.75;;;21.87;42.82
45323;BME280;31382;50.200;8.674;2023-05-15T09:34:28;99847.06;;;22.07;42.35
45323;BME280;31382;50.200;8.674;2023-05-15T09:39:30;99852.28;;;22.13;41.88
45323;BME280;31382;50.200;8.674;2023-05-15T09:44:31;99849.84;;;22.17;41.49
45323;BME280;31382;50.200;8.674;2023-05-15T09:49:34;99837.34;;;22.31;41.45
45323;BME280;31382;50.200;8.674;2023-05-15T09:54:36;99849.78;;;22.49;40.30
45323;BME280;31382;50.200;8.674;2023-05-15T09:59:46;99834.72;;;22.57;39.52
45323;BME280;31382;50.200;8.674;2023-05-15T10:04:54;99824.16;;;22.91;39.54
45323;BME280;31382;50.200;8.674;2023-05-15T10:09:57;99819.63;;;22.44;40.43
45323;BME280;31382;50.200;8.674;2023-05-15T10:15:00;99821.03;;;22.52;40.71
45323;BME280;31382;50.200;8.674;2023-05-15T10:20:02;99823.09;;;22.24;40.81
45323;BME280;31382;50.200;8.674;2023-05-15T10:25:40;99820.94;;;22.36;39.97
45323;BME280;31382;50.200;8.674;2023-05-15T10:30:42;99821.94;;;22.88;38.84
45323;BME280;31382;50.200;8.674;2023-05-15T10:35:45;99810.50;;;23.22;38.22
45323;BME280;31382;50.200;8.674;2023-05-15T10:40:47;99813.97;;;22.82;38.73
45323;BME280;31382;50.200;8.674;2023-05-15T10:45:51;99819.50;;;22.97;38.67
45323;BME280;31382;50.200;8.674;2023-05-15T10:50:52;99799.75;;;22.95;38.10
45323;BME280;31382;50.200;8.674;2023-05-15T10:55:54;99804.22;;;23.27;38.94
45323;BME280;31382;50.200;8.674;2023-05-15T11:00:55;99794.31;;;23.72;38.39
45323;BME280;31382;50.200;8.674;2023-05-15T11:06:08;99793.50;;;23.66;39.25
45323;BME280;31382;50.200;8.674;2023-05-15T11:11:51;99784.69;;;23.74;39.18
45323;BME280;31382;50.200;8.674;2023-05-15T11:27:11;99779.47;;;23.88;38.46
45323;BME280;31382;50.200;8.674;2023-05-15T11:32:39;99762.47;;;23.86;38.24
45323;BME280;31382;50.200;8.674;2023-05-15T11:37:42;99761.84;;;24.05;37.68
45323;BME280;31382;50.200;8.674;2023-05-15T11:43:03;99769.56;;;23.87;37.80
45323;BME280;31382;50.200;8.674;2023-05-15T11:48:06;99766.78;;;24.03;37.30
45323;BME280;31382;50.200;8.674;2023-05-15T11:53:08;99779.72;;;24.07;37.23
45323;BME280;31382;50.200;8.674;2023-05-15T11:58:21;99789.25;;;24.20;37.64
45323;BME280;31382;50.200;8.674;2023-05-15T12:03:33;99771.50;;;23.76;38.32
45323;BME280;31382;50.200;8.674;2023-05-15T12:08:36;99774.31;;;23.30;39.18
45323;BME280;31382;50.200;8.674;2023-05-15T12:13:38;99773.50;;;23.35;39.68
45323;BME280;31382;50.200;8.674;2023-05-15T12:18:40;99777.03;;;23.35;39.83
45323;BME280;31382;50.200;8.674;2023-05-15T12:23:49;99772.66;;;23.45;39.83
45323;BME280;31382;50.200;8.674;2023-05-15T12:29:07;99776.78;;;23.37;39.79
45323;BME280;31382;50.200;8.674;2023-05-15T12:34:09;99774.84;;;23.27;39.20
45323;BME280;31382;50.200;8.674;2023-05-15T12:39:10;99759.78;;;23.09;37.12
45323;BME280;31382;50.200;8.674;2023-05-15T12:44:16;99763.03;;;23.63;35.84
45323;BME280;31382;50.200;8.674;2023-05-15T12:49:21;99769.09;;;23.44;34.57
45323;BME280;31382;50.200;8.674;2023-05-15T12:54:23;99763.03;;;23.68;33.80
45323;BME280;31382;50.200;8.674;2023-05-15T12:59:24;99774.78;;;23.73;33.34
45323;BME280;31382;50.200;8.674;2023-05-15T13:04:26;99788.00;;;23.82;32.99
45323;BME280;31382;50.200;8.674;2023-05-15T13:09:27;99781.94;;;23.69;33.05
45323;BME280;31382;50.200;8.674;2023-05-15T13:14:33;99780.88;;;23.29;34.03
45323;BME280;31382;50.200;8.674;2023-05-15T13:19:34;99789.84;;;22.73;35.71
45323;BME280;31382;50.200;8.674;2023-05-15T13:24:36;99785.53;;;22.20;37.19
45323;BME280;31382;50.200;8.674;2023-05-15T13:29:37;99783.53;;;21.57;38.31
45323;BME280;31382;50.200;8.674;2023-05-15T13:34:39;99780.34;;;21.38;38.08
45323;BME280;31382;50.200;8.674;2023-05-15T13:39:40;99794.81;;;20.79;38.84
45323;BME280;31382;50.200;8.674;2023-05-15T13:44:42;99821.47;;;20.45;40.66
45323;BME280;31382;50.200;8.674;2023-05-15T13:49:44;99865.19;;;20.28;42.41
45323;BME280;31382;50.200;8.674;2023-05-15T13:54:45;99854.19;;;20.00;43.31
45323;BME280;31382;50.200;8.674;2023-05-15T13:59:47;99874.66;;;19.52;44.84
45323;BME280;31382;50.200;8.674;2023-05-15T14:04:48;99875.09;;;18.87;47.48
45323;BME280;31382;50.200;8.674;2023-05-15T14:09:50;99891.78;;;17.49;52.27
45323;BME280;31382;50.200;8.674;2023-05-15T14:14:51;99888.44;;;16.56;56.37
45323;BME280;31382;50.200;8.674;2023-05-15T14:19:53;99884.16;;;15.86;59.18
45323;BME280;31382;50.200;8.674;2023-05-15T14:24:54;99870.75;;;15.34;61.23
45323;BME280;31382;50.200;8.674;2023-05-15T14:29:56;99857.81;;;15.04;62.38
45323;BME280;31382;50.200;8.674;2023-05-15T14:34:57;99852.25;;;14.93;64.51
45323;BME280;31382;50.200;8.674;2023-05-15T14:40:00;99846.75;;;14.74;65.59
45323;BME280;31382;50.200;8.674;2023-05-15T14:45:01;99846.81;;;14.61;67.19
45323;BME280;31382;50.200;8.674;2023-05-15T14:50:03;99864.91;;;14.60;68.69
45323;BME280;31382;50.200;8.674;2023-05-15T14:55:05;99845.31;;;14.72;69.16
45323;BME280;31382;50.200;8.674;2023-05-15T15:00:10;99841.69;;;14.84;68.73
45323;BME280;31382;50.200;8.674;2023-05-15T15:05:13;99837.84;;;15.05;67.67
45323;BME280;31382;50.200;8.674;2023-05-15T15:10:14;99829.78;;;15.24;66.94
45323;BME280;31382;50.200;8.674;2023-05-15T15:15:16;99832.25;;;15.57;65.68
45323;BME280;31382;50.200;8.674;2023-05-15T15:20:19;99832.19;;;15.64;65.40
45323;BME280;31382;50.200;8.674;2023-05-15T15:25:20;99832.28;;;15.25;67.49
45323;BME280;31382;50.200;8.674;2023-05-15T15:30:22;99825.25;;;15.18;68.32
45323;BME280;31382;50.200;8.674;2023-05-15T15:35:24;99827.31;;;15.47;67.82
45323;BME280;31382;50.200;8.674;2023-05-15T15:40:25;99828.41;;;15.65;67.47
45323;BME280;31382;50.200;8.674;2023-05-15T15:45:27;99813.81;;;15.91;67.09
45323;BME280;31382;50.200;8.674;2023-05-15T15:50:28;99825.44;;;16.17;66.44
45323;BME280;31382;50.200;8.674;2023-05-15T15:55:30;99834.50;;;16.29;66.78
45323;BME280;31382;50.200;8.674;2023-05-15T16:00:31;99832.34;;;16.50;67.06
45323;BME280;31382;50.200;8.674;2023-05-15T16:05:32;99837.56;;;17.00;65.97
45323;BME280;31382;50.200;8.674;2023-05-15T16:10:34;99830.91;;;17.26;65.92
45323;BME280;31382;50.200;8.674;2023-05-15T16:15:35;99832.63;;;17.62;65.41
45323;BME280;31382;50.200;8.674;2023-05-15T16:20:37;99837.00;;;17.99;64.52
45323;BME280;31382;50.200;8.674;2023-05-15T16:25:39;99832.41;;;18.23;64.32
45323;BME280;31382;50.200;8.674;2023-05-15T16:30:40;99834.84;;;18.36;64.03
45323;BME280;31382;50.200;8.674;2023-05-15T16:35:49;99832.59;;;18.45;63.75
45323;BME280;31382;50.200;8.674;2023-05-15T16:40:52;99823.78;;;18.55;63.02
45323;BME280;31382;50.200;8.674;2023-05-15T16:45:54;99826.59;;;18.60;62.23
45323;BME280;31382;50.200;8.674;2023-05-15T16:50:55;99831.69;;;18.68;61.30
45323;BME280;31382;50.200;8.674;2023-05-15T16:55:57;99824.50;;;18.50;60.95
45323;BME280;31382;50.200;8.674;2023-05-15T17:00:58;99826.09;;;18.34;60.48
45323;BME280;31382;50.200;8.674;2023-05-15T17:06:00;99831.91;;;18.26;60.25
45323;BME280;31382;50.200;8.674;2023-05-15T17:11:01;99829.75;;;18.28;60.12
45323;BME280;31382;50.200;8.674;2023-05-15T17:16:03;99832.03;;;18.31;60.06
45323;BME280;31382;50.200;8.674;2023-05-15T17:21:05;99831.06;;;18.37;59.66
45323;BME280;31382;50.200;8.674;2023-05-15T17:26:06;99834.75;;;18.31;59.98
45323;BME280;31382;50.200;8.674;2023-05-15T17:31:07;99836.34;;;18.44;59.27
45323;BME280;31382;50.200;8.674;2023-05-15T17:36:10;99849.81;;;18.62;59.22
45323;BME280;31382;50.200;8.674;2023-05-15T17:41:11;99842.19;;;18.88;59.29
45323;BME280;31382;50.200;8.674;2023-05-15T17:46:13;99845.31;;;18.97;58.93
45323;BME280;31382;50.200;8.674;2023-05-15T17:51:14;99849.78;;;19.03;58.80
45323;BME280;31382;50.200;8.674;2023-05-15T17:56:16;99854.75;;;19.06;58.35
45323;BME280;31382;50.200;8.674;2023-05-15T18:01:18;99861.44;;;19.15;57.99
45323;BME280;31382;50.200;8.674;2023-05-15T18:06:20;99856.44;;;19.24;58.03
45323;BME280;31382;50.200;8.674;2023-05-15T18:11:21;99863.31;;;19.27;58.06
45323;BME280;31382;50.200;8.674;2023-05-15T18:16:23;99873.53;;;19.19;57.86
45323;BME280;31382;50.200;8.674;2023-05-15T18:21:25;99870.94;;;19.13;57.45
45323;BME280;31382;50.200;8.674;2023-05-15T18:26:26;99872.91;;;19.00;57.09
45323;BME280;31382;50.200;8.674;2023-05-15T18:31:31;99886.56;;;18.89;56.73
45323;BME280;31382;50.200;8.674;2023-05-15T18:36:33;99895.81;;;18.76;56.69
45323;BME280;31382;50.200;8.674;2023-05-15T18:41:34;99901.28;;;18.64;57.10
45323;BME280;31382;50.200;8.674;2023-05-15T18:46:36;99905.56;;;18.48;56.81
45323;BME280;31382;50.200;8.674;2023-05-15T18:51:38;99907.00;;;18.51;56.71
45323;BME280;31382;50.200;8.674;2023-05-15T18:56:39;99914.69;;;18.42;56.18
45323;BME280;31382;50.200;8.674;2023-05-15T19:01:43;99916.47;;;18.36;57.04
45323;BME280;31382;50.200;8.674;2023-05-15T19:06:46;99917.31;;;18.25;56.62
45323;BME280;31382;50.200;8.674;2023-05-15T19:11:51;99925.00;;;18.04;56.93
45323;BME280;31382;50.200;8.674;2023-05-15T19:16:52;99928.66;;;17.98;56.98
45323;BME280;31382;50.200;8.674;2023-05-15T19:21:54;99938.25;;;18.01;57.00
45323;BME280;31382;50.200;8.674;2023-05-15T19:26:55;99946.75;;;18.16;57.20
45323;BME280;31382;50.200;8.674;2023-05-15T19:31:57;99951.38;;;18.16;57.57
45323;BME280;31382;50.200;8.674;2023-05-15T19:36:58;99951.88;;;18.13;57.90
45323;BME280;31382;50.200;8.674;2023-05-15T19:42:00;99964.84;;;18.11;58.00
45323;BME280;31382;50.200;8.674;2023-05-15T19:47:01;99977.63;;;18.10;57.95
45323;BME280;31382;50.200;8.674;2023-05-15T19:52:04;99994.44;;;17.77;58.87
45323;BME280;31382;50.200;8.674;2023-05-15T19:57:05;99992.06;;;17.69;59.06
45323;BME280;31382;50.200;8.674;2023-05-15T20:02:07;99992.66;;;17.71;58.82
45323;BME280;31382;50.200;8.674;2023-05-15T20:07:10;99997.16;;;17.77;59.12
45323;BME280;31382;50.200;8.674;2023-05-15T20:12:13;100001.88;;;17.70;59.22
45323;BME280;31382;50.200;8.674;2023-05-15T20:17:14;100012.44;;;17.48;59.61
45323;BME280;31382;50.200;8.674;2023-05-15T20:22:16;100005.88;;;17.37;59.78
45323;BME280;31382;50.200;8.674;2023-05-15T20:27:17;100009.84;;;17.22;60.27
45323;BME280;31382;50.200;8.674;2023-05-15T20:32:20;99999.72;;;17.11;60.60
45323;BME280;31382;50.200;8.674;2023-05-15T20:37:23;100001.25;;;17.07;60.42
45323;BME280;31382;50.200;8.674;2023-05-15T20:42:27;100006.06;;;17.05;60.28
45323;BME280;31382;50.200;8.674;2023-05-15T20:47:43;100009.00;;;17.03;59.65
45323;BME280;31382;50.200;8.674;2023-05-15T20:52:45;100013.84;;;17.01;59.39
45323;BME280;31382;50.200;8.674;2023-05-15T20:57:47;100008.03;;;16.98;59.43
45323;BME280;31382;50.200;8.674;2023-05-15T21:02:51;100013.44;;;16.79;59.69
45323;BME280;31382;50.200;8.674;2023-05-15T21:07:53;100009.03;;;16.78;59.32
45323;BME280;31382;50.200;8.674;2023-05-15T21:12:57;100008.31;;;16.71;59.14
45323;BME280;31382;50.200;8.674;2023-05-15T21:18:00;100013.41;;;16.61;59.12
45323;BME280;31382;50.200;8.674;2023-05-15T21:23:03;100011.97;;;16.58;59.33
45323;BME280;31382;50.200;8.674;2023-05-15T21:28:04;100011.56;;;16.36;60.17
45323;BME280;31382;50.200;8.674;2023-05-15T21:33:07;100018.03;;;16.35;60.06
45323;BME280;31382;50.200;8.674;2023-05-15T21:38:09;100015.72;;;16.14;60.79
45323;BME280;31382;50.200;8.674;2023-05-15T21:43:13;100017.56;;;16.13;60.55
45323;BME280;31382;50.200;8.674;2023-05-15T21:48:15;100018.03;;;16.10;60.53
45323;BME280;31382;50.200;8.674;2023-05-15T21:53:19;100018.69;;;16.05;60.73
45323;BME280;31382;50.200;8.674;2023-05-15T21:58:20;100022.84;;;16.08;60.47
45323;BME280;31382;50.200;8.674;2023-05-15T22:03:22;100025.97;;;16.05;60.59
45323;BME280;31382;50.200;8.674;2023-05-15T22:08:24;100030.41;;;15.99;60.88
45323;BME280;31382;50.200;8.674;2023-05-15T22:13:25;100024.84;;;15.88;60.97
45323;BME280;31382;50.200;8.674;2023-05-15T22:18:27;100031.13;;;15.88;60.67
45323;BME280;31382;50.200;8.674;2023-05-15T22:23:29;100030.50;;;15.86;60.77
45323;BME280;31382;50.200;8.674;2023-05-15T22:28:32;100022.88;;;15.76;61.08
45323;BME280;31382;50.200;8.674;2023-05-15T22:33:34;100025.78;;;15.75;61.12
45323;BME280;31382;50.200;8.674;2023-05-15T22:38:36;100036.03;;;15.66;61.11
45323;BME280;31382;50.200;8.674;2023-05-15T22:43:38;100039.09;;;15.70;60.85
45323;BME280;31382;50.200;8.674;2023-05-15T22:48:40;100036.66;;;15.61;61.25
45323;BME280;31382;50.200;8.674;2023-05-15T22:53:42;100032.31;;;15.54;61.37
45323;BME280;31382;50.200;8.674;2023-05-15T22:58:45;100046.72;;;15.54;61.38
45323;BME280;31382;50.200;8.674;2023-05-15T23:03:48;100049.28;;;15.42;61.48
45323;BME280;31382;50.200;8.674;2023-05-15T23:08:49;100049.47;;;15.41;61.59
45323;BME280;31382;50.200;8.674;2023-05-15T23:13:51;100048.88;;;15.39;61.87
45323;BME280;31382;50.200;8.674;2023-05-15T23:18:55;100040.28;;;15.42;61.87
45323;BME280;31382;50.200;8.674;2023-05-15T23:23:56;100052.00;;;15.36;62.13
45323;BME280;31382;50.200;8.674;2023-05-15T23:28:58;100056.78;;;15.40;62.46
45323;BME280;31382;50.200;8.674;2023-05-15T23:34:00;100049.69;;;15.39;62.19
45323;BME280;31382;50.200;8.674;2023-05-15T23:39:01;100056.19;;;15.32;62.48
45323;BME280;31382;50.200;8.674;2023-05-15T23:44:03;100055.34;;;15.31;62.34
45323;BME280;31382;50.200;8.674;2023-05-15T23:49:05;100055.16;;;15.33;62.60
45323;BME280;31382;50.200;8.674;2023-05-15T23:54:06;100050.59;;;15.26;62.63
45323;BME280;31382;50.200;8.674;2023-05-15T23:59:09;100064.97;;;15.27;62.55
